Time;durP1;ratioP1;P1;durP2;ratioP2;P2;SDS_P1;SDS_P2;PMS_P1;PMS_P2;Temp;Humidity;BMP_temperature;BMP_pressure;BME280_temperature;BME280_humidity;BME280_pressure;Samples;Min_cycle;Max_cycle;Signal;HPM_P1;HPM_P2
2021/04/23 00:00:34;;;;;;;27.17;18.73;;;10.90;90.20;;;;;;5003587;28;20256;-71
2021/04/23 00:03:07;;;;;;;27.33;19.83;;;10.80;90.40;;;;;;4997590;28;20227;-72
2021/04/23 00:05:34;;;;;;;23.80;15.80;;;10.80;90.50;;;;;;5005249;28;20220;-72
2021/04/23 00:08:00;;;;;;;19.10;15.90;;;10.80;90.60;;;;;;5005156;28;20220;-72
2021/04/23 00:10:27;;;;;;;18.97;17.03;;;10.80;90.40;;;;;;5003036;28;20247;-72
2021/04/23 00:12:54;;;;;;;26.63;15.67;;;10.80;90.30;;;;;;5003059;28;20224;-72
2021/04/23 00:15:21;;;;;;;19.30;17.20;;;10.80;90.20;;;;;;5002078;28;20829;-72
2021/04/23 00:17:49;;;;;;;23.70;18.93;;;10.80;90.20;;;;;;5002634;28;20244;-72
2021/04/23 00:20:20;;;;;;;21.50;17.83;;;10.70;90.30;;;;;;5001242;28;20763;-72
2021/04/23 00:22:51;;;;;;;25.07;20.17;;;10.70;90.30;;;;;;5003396;28;20286;-72
2021/04/23 00:25:25;;;;;;;27.77;21.13;;;10.70;90.40;;;;;;4997220;28;20615;-72
2021/04/23 00:27:58;;;;;;;25.63;20.90;;;10.70;90.60;;;;;;5001524;28;20219;-72
2021/04/23 00:30:28;;;;;;;26.37;21.37;;;10.70;90.70;;;;;;5006245;28;20224;-72
2021/04/23 00:32:55;;;;;;;19.17;15.77;;;10.70;90.70;;;;;;5002549;28;20231;-72
2021/04/23 00:35:26;;;;;;;23.80;18.57;;;10.70;90.70;;;;;;5001700;28;20224;-72
2021/04/23 00:37:55;;;;;;;26.10;19.93;;;10.70;90.50;;;;;;4985967;28;20232;-72
2021/04/23 00:40:31;;;;;;;28.10;22.77;;;10.70;90.40;;;;;;5003784;28;20632;-72
2021/04/23 00:43:05;;;;;;;23.03;19.23;;;10.70;90.70;;;;;;4989008;28;20216;-72
2021/04/23 00:45:32;;;;;;;26.37;20.53;;;10.60;90.70;;;;;;4986119;28;20219;-72
2021/04/23 00:48:02;;;;;;;33.40;22.30;;;10.60;90.70;;;;;;4994678;28;20234;-72
2021/04/23 00:50:46;;;;;;;24.13;20.47;;;10.60;90.70;;;;;;5000859;28;20309;-72
2021/04/23 00:53:24;;;;;;;18.97;16.80;;;10.60;90.80;;;;;;4996859;28;20680;-72
2021/04/23 00:55:52;;;;;;;19.87;15.47;;;10.50;90.70;;;;;;5002678;28;20652;-72
2021/04/23 00:58:22;;;;;;;19.07;15.27;;;10.50;90.60;;;;;;5002208;28;20332;-72
2021/04/23 01:00:52;;;;;;;18.57;16.50;;;10.40;90.30;;;;;;5004755;28;20262;-72
2021/04/23 01:03:20;;;;;;;21.13;18.83;;;10.40;90.20;;;;;;4986504;28;20770;-72
2021/04/23 01:05:48;;;;;;;29.83;15.37;;;10.40;90.20;;;;;;4987856;28;20213;-72
2021/04/23 01:08:15;;;;;;;18.93;14.17;;;10.30;90.20;;;;;;4983689;28;20220;-72
2021/04/23 01:10:42;;;;;;;22.57;17.87;;;10.30;90.30;;;;;;5001923;28;20239;-72
2021/04/23 01:13:09;;;;;;;17.07;15.23;;;10.20;90.40;;;;;;5005218;28;20220;-72
2021/04/23 01:15:35;;;;;;;26.20;19.00;;;10.20;90.60;;;;;;5004684;28;20628;-72
2021/04/23 01:18:03;;;;;;;22.33;16.57;;;10.20;90.60;;;;;;5008183;28;20246;-72
2021/04/23 01:20:30;;;;;;;25.30;20.27;;;10.20;90.70;;;;;;5006715;28;20274;-72
2021/04/23 01:22:57;;;;;;;23.10;19.00;;;10.20;90.70;;;;;;4984594;28;20208;-72
2021/04/23 01:25:24;;;;;;;29.87;23.00;;;10.10;90.70;;;;;;5001532;28;20216;-72
2021/04/23 01:27:51;;;;;;;28.17;20.87;;;10.10;91.00;;;;;;5007100;28;20224;-72
2021/04/23 01:30:21;;;;;;;26.23;21.60;;;10.10;91.20;;;;;;5007526;28;20531;-72
2021/04/23 01:32:48;;;;;;;21.97;18.93;;;10.20;91.20;;;;;;5001069;28;20220;-72
2021/04/23 01:35:21;;;;;;;19.97;14.07;;;10.20;91.20;;;;;;5006223;28;20224;-72
2021/04/23 01:37:48;;;;;;;18.07;16.00;;;10.20;91.10;;;;;;4995525;28;20871;-72
2021/04/23 01:40:16;;;;;;;17.63;15.77;;;10.20;91.00;;;;;;5007627;28;20224;-73
2021/04/23 01:42:44;;;;;;;22.33;17.30;;;10.10;90.80;;;;;;5006640;28;20567;-72
2021/04/23 01:45:12;;;;;;;22.90;18.70;;;10.00;90.50;;;;;;4991721;28;20223;-72
2021/04/23 01:47:38;;;;;;;670.97;38.17;;;10.00;90.40;;;;;;5007600;28;20255;-72
2021/04/23 01:50:09;;;;;;;259.30;26.73;;;9.90;90.30;;;;;;4992395;28;20212;-72
2021/04/23 01:52:36;;;;;;;27.60;20.63;;;9.80;90.40;;;;;;5007947;28;20234;-73
2021/04/23 01:55:07;;;;;;;27.57;21.77;;;9.80;90.50;;;;;;5003870;28;20227;-72
2021/04/23 01:57:33;;;;;;;34.67;25.37;;;9.70;90.70;;;;;;5008290;28;20704;-72
2021/04/23 02:00:00;;;;;;;37.93;26.90;;;9.70;90.90;;;;;;5008163;28;20240;-72
2021/04/23 02:02:27;;;;;;;27.30;21.80;;;9.70;91.10;;;;;;5005856;28;20256;-72
2021/04/23 02:04:54;;;;;;;30.00;26.30;;;9.70;91.30;;;;;;5002870;28;20346;-72
2021/04/23 02:07:21;;;;;;;31.23;24.83;;;9.70;91.30;;;;;;5006934;28;20223;-72
2021/04/23 02:09:48;;;;;;;36.97;28.93;;;9.70;91.30;;;;;;4990356;28;20258;-72
2021/04/23 02:12:14;;;;;;;25.87;22.03;;;9.70;91.40;;;;;;5001442;28;20256;-72
2021/04/23 02:14:41;;;;;;;344.37;31.87;;;9.80;91.50;;;;;;5001415;28;20224;-72
2021/04/23 02:17:08;;;;;;;203.63;24.10;;;9.80;91.20;;;;;;4989625;28;20236;-72
2021/04/23 02:19:36;;;;;;;27.00;20.87;;;9.70;91.00;;;;;;4994864;28;20304;-72
2021/04/23 02:22:03;;;;;;;40.30;17.97;;;9.60;91.10;;;;;;5006834;28;20640;-72
2021/04/23 02:24:30;;;;;;;352.10;29.70;;;9.60;91.10;;;;;;5006489;28;20625;-72
2021/04/23 02:26:56;;;;;;;58.17;21.10;;;9.50;91.10;;;;;;4994951;28;20625;-72
2021/04/23 02:29:23;;;;;;;322.37;30.10;;;9.50;91.20;;;;;;5004949;28;20550;-72
2021/04/23 02:31:54;;;;;;;383.10;34.13;;;9.50;91.20;;;;;;5005505;28;20243;-72
2021/04/23 02:34:23;;;;;;;127.73;26.10;;;9.40;91.10;;;;;;5006337;28;20230;-73
2021/04/23 02:36:51;;;;;;;77.33;24.07;;;9.20;91.00;;;;;;5003211;28;20318;-72
2021/04/23 02:39:19;;;;;;;39.03;22.53;;;9.10;91.00;;;;;;5006276;28;20233;-72
2021/04/23 02:41:50;;;;;;;58.87;22.53;;;9.00;91.10;;;;;;5003219;28;20565;-72
2021/04/23 02:44:17;;;;;;;24.60;21.93;;;8.90;91.60;;;;;;4993031;28;20227;-72
2021/04/23 02:46:44;;;;;;;36.73;27.27;;;8.90;91.40;;;;;;5007332;28;20219;-72
2021/04/23 02:49:12;;;;;;;27.63;22.07;;;8.90;91.30;;;;;;5003867;28;20220;-72
2021/04/23 02:51:43;;;;;;;57.90;20.17;;;9.00;91.60;;;;;;5004961;28;20231;-72
2021/04/23 02:54:11;;;;;;;378.40;31.63;;;8.90;91.40;;;;;;5006666;28;20243;-72
2021/04/23 02:56:38;;;;;;;39.80;20.77;;;8.90;91.40;;;;;;4985353;28;20221;-72
2021/04/23 02:59:07;;;;;;;21.83;18.30;;;8.90;91.30;;;;;;5002783;28;20232;-72
2021/04/23 03:01:39;;;;;;;21.10;18.10;;;8.90;91.30;;;;;;4986843;28;20221;-73
2021/04/23 03:04:06;;;;;;;32.87;20.67;;;8.80;91.20;;;;;;4993145;28;20220;-72
2021/04/23 03:06:34;;;;;;;76.47;20.50;;;8.80;91.20;;;;;;5004205;28;20615;-72
2021/04/23 03:09:02;;;;;;;21.30;19.03;;;8.80;91.30;;;;;;5006560;28;20693;-72
2021/04/23 03:11:29;;;;;;;27.33;22.03;;;8.70;91.20;;;;;;5003665;28;20572;-72
2021/04/23 03:13:59;;;;;;;28.17;22.70;;;8.70;91.10;;;;;;5003095;28;20550;-72
2021/04/23 03:16:26;;;;;;;19.10;16.60;;;8.70;91.00;;;;;;5006192;28;20224;-72
2021/04/23 03:18:54;;;;;;;17.77;15.87;;;8.70;91.00;;;;;;5003005;28;20240;-72
2021/04/23 03:21:23;;;;;;;25.23;22.30;;;8.70;91.00;;;;;;5004423;28;20223;-72
2021/04/23 03:23:50;;;;;;;28.43;23.43;;;8.80;90.90;;;;;;5002711;28;20625;-72
2021/04/23 03:26:19;;;;;;;30.97;22.80;;;8.70;90.70;;;;;;5005973;28;20216;-72
2021/04/23 03:28:47;;;;;;;40.13;19.67;;;8.70;90.40;;;;;;4989087;28;20235;-72
2021/04/23 03:31:16;;;;;;;21.43;18.07;;;8.60;90.30;;;;;;4994184;28;20238;-72
2021/04/23 03:33:44;;;;;;;25.13;18.70;;;8.60;90.40;;;;;;5006553;28;20248;-72
2021/04/23 03:36:12;;;;;;;27.00;19.13;;;8.60;90.50;;;;;;5003974;28;20230;-72
2021/04/23 03:38:41;;;;;;;27.00;18.57;;;8.70;90.60;;;;;;5005459;28;20677;-72
2021/04/23 03:41:12;;;;;;;43.27;20.00;;;8.80;90.80;;;;;;5003885;28;20234;-72
2021/04/23 03:43:39;;;;;;;33.60;20.73;;;8.90;90.80;;;;;;5004337;28;20216;-72
2021/04/23 03:46:06;;;;;;;85.87;22.87;;;8.90;90.90;;;;;;5003725;28;20232;-72
2021/04/23 03:48:34;;;;;;;86.50;22.53;;;9.00;91.00;;;;;;5007436;28;20224;-72
2021/04/23 03:51:03;;;;;;;147.70;23.37;;;9.10;91.10;;;;;;5008028;28;20224;-72
2021/04/23 03:53:30;;;;;;;103.37;22.33;;;9.20;91.30;;;;;;5008089;28;20220;-73
2021/04/23 03:55:58;;;;;;;81.87;20.87;;;9.20;91.30;;;;;;5013811;28;20279;-72
2021/04/23 03:58:25;;;;;;;95.53;22.77;;;9.20;91.40;;;;;;5009879;28;20239;-72
2021/04/23 04:01:01;;;;;;;64.83;21.93;;;9.30;91.50;;;;;;5006999;28;20228;-73
2021/04/23 04:03:29;;;;;;;111.67;21.53;;;9.30;91.60;;;;;;4991879;28;20307;-72
2021/04/23 04:05:56;;;;;;;77.50;19.73;;;9.40;91.70;;;;;;5011848;28;20532;-72
2021/04/23 04:08:24;;;;;;;67.40;19.03;;;9.40;91.70;;;;;;5004505;28;20279;-72
2021/04/23 04:10:51;;;;;;;135.90;21.80;;;9.50;91.70;;;;;;5011947;28;20227;-72
2021/04/23 04:13:18;;;;;;;141.43;25.70;;;9.50;91.80;;;;;;5010867;28;20219;-73
2021/04/23 04:15:45;;;;;;;92.63;21.17;;;9.50;91.80;;;;;;5007224;28;20224;-72
2021/04/23 04:18:12;;;;;;;159.20;22.20;;;9.50;91.80;;;;;;5007992;28;20327;-72
2021/04/23 04:20:43;;;;;;;133.87;21.50;;;9.50;91.80;;;;;;5001755;28;20211;-72
2021/04/23 04:23:14;;;;;;;127.83;23.03;;;9.50;91.80;;;;;;5003058;28;20227;-72
2021/04/23 04:25:43;;;;;;;98.03;20.27;;;9.50;91.90;;;;;;5004003;28;20225;-72
2021/04/23 04:28:10;;;;;;;144.70;21.00;;;9.40;91.80;;;;;;5005439;28;20248;-72
2021/04/23 04:30:37;;;;;;;102.00;19.30;;;9.40;91.90;;;;;;4995282;28;20212;-72
2021/04/23 04:33:06;;;;;;;90.30;18.83;;;9.40;91.90;;;;;;5006483;28;20220;-72
2021/04/23 04:35:33;;;;;;;100.10;17.50;;;9.40;92.00;;;;;;5002398;28;20239;-72
2021/04/23 04:38:00;;;;;;;63.07;18.17;;;9.50;92.00;;;;;;5001060;28;20250;-72
2021/04/23 04:40:28;;;;;;;51.60;16.73;;;9.40;92.00;;;;;;5002232;28;20248;-73
2021/04/23 04:42:56;;;;;;;59.07;16.63;;;9.50;92.00;;;;;;5004120;28;20226;-73
2021/04/23 04:45:25;;;;;;;65.50;15.60;;;9.50;91.90;;;;;;5005897;28;20673;-73
2021/04/23 04:47:53;;;;;;;54.80;16.43;;;9.50;91.90;;;;;;5007193;28;20230;-72
2021/04/23 04:50:27;;;;;;;46.57;16.17;;;9.50;91.80;;;;;;5008123;28;20223;-72
2021/04/23 04:52:56;;;;;;;49.70;16.67;;;9.50;91.90;;;;;;4999373;28;20222;-72
2021/04/23 04:55:28;;;;;;;59.70;16.40;;;9.60;91.90;;;;;;5006600;28;20224;-72
2021/04/23 04:57:56;;;;;;;84.73;16.67;;;9.60;91.80;;;;;;4990661;28;20243;-72
2021/04/23 05:00:24;;;;;;;55.30;16.70;;;9.70;91.80;;;;;;5004023;28;20244;-73
2021/04/23 05:02:52;;;;;;;33.83;16.43;;;9.70;91.70;;;;;;5007912;28;20663;-72
2021/04/23 05:05:20;;;;;;;44.20;15.67;;;9.80;91.90;;;;;;5005669;28;20212;-73
2021/04/23 05:07:47;;;;;;;51.83;16.33;;;9.80;91.50;;;;;;4998506;28;20310;-72
2021/04/23 05:10:14;;;;;;;47.17;15.77;;;9.90;91.50;;;;;;5004794;28;20220;-72
2021/04/23 05:12:41;;;;;;;65.90;16.83;;;9.90;91.40;;;;;;5009884;28;20323;-72
2021/04/23 05:15:11;;;;;;;30.97;15.97;;;9.90;91.30;;;;;;5004919;28;20315;-72
2021/04/23 05:17:38;;;;;;;19.67;16.10;;;9.90;91.20;;;;;;5008675;28;20584;-72
2021/04/23 05:20:11;;;;;;;39.57;16.03;;;9.90;91.30;;;;;;4993886;28;20228;-72
2021/04/23 05:22:38;;;;;;;53.10;16.67;;;10.00;91.30;;;;;;5006410;28;20212;-72
2021/04/23 05:25:07;;;;;;;27.07;15.57;;;10.00;91.10;;;;;;5004026;28;20216;-72
2021/04/23 05:27:34;;;;;;;47.50;16.37;;;10.00;91.00;;;;;;5002606;28;20559;-72
2021/04/23 05:30:06;;;;;;;57.73;16.47;;;10.00;91.00;;;;;;5006851;28;20231;-72
2021/04/23 05:32:33;;;;;;;32.57;14.73;;;10.10;90.90;;;;;;5007091;28;20557;-72
2021/04/23 05:35:00;;;;;;;53.33;16.00;;;10.10;90.80;;;;;;5005131;28;20315;-72
2021/04/23 05:37:27;;;;;;;30.73;14.13;;;10.20;90.80;;;;;;5006031;28;20247;-72
2021/04/23 05:39:54;;;;;;;19.70;15.67;;;10.20;90.60;;;;;;5007851;28;20223;-72
2021/04/23 05:42:21;;;;;;;16.80;15.20;;;10.20;90.50;;;;;;5007532;28;20211;-72
2021/04/23 05:44:48;;;;;;;15.37;13.97;;;10.40;90.70;;;;;;5002447;28;20211;-72
2021/04/23 05:47:14;;;;;;;14.73;13.53;;;10.60;90.80;;;;;;4989100;28;20310;-73
2021/04/23 05:49:41;;;;;;;13.87;12.67;;;10.80;90.40;;;;;;5002266;28;20214;-73
2021/04/23 05:52:08;;;;;;;14.23;12.93;;;11.00;90.30;;;;;;4997206;28;20211;-72
2021/04/23 05:54:36;;;;;;;13.13;12.03;;;11.20;90.20;;;;;;4988677;28;20216;-72
2021/04/23 05:57:03;;;;;;;14.67;13.10;;;11.40;89.90;;;;;;5004512;28;20220;-72
2021/04/23 05:59:30;;;;;;;13.47;12.27;;;11.60;88.80;;;;;;4991922;28;20259;-72
2021/04/23 06:01:57;;;;;;;13.80;11.87;;;11.70;88.40;;;;;;5009352;28;20558;-72
2021/04/23 06:04:24;;;;;;;12.53;11.23;;;11.80;88.30;;;;;;5004533;28;20295;-72
2021/04/23 06:06:51;;;;;;;13.23;12.03;;;12.00;87.50;;;;;;4990324;28;20216;-72
2021/04/23 06:09:17;;;;;;;13.10;11.90;;;12.30;87.20;;;;;;5006445;28;20220;-72
2021/04/23 06:11:44;;;;;;;11.93;10.83;;;12.50;86.30;;;;;;4988289;28;20625;-72
2021/04/23 06:14:12;;;;;;;12.07;10.97;;;12.70;85.50;;;;;;5002968;28;20220;-72
2021/04/23 06:16:38;;;;;;;13.47;11.23;;;12.90;85.20;;;;;;5000234;28;20235;-72
2021/04/23 06:19:06;;;;;;;12.20;11.10;;;13.10;84.60;;;;;;5005764;28;20250;-72
2021/04/23 06:21:33;;;;;;;12.00;10.90;;;13.30;84.20;;;;;;5006431;28;20531;-72
2021/04/23 06:24:00;;;;;;;12.40;11.10;;;13.60;83.50;;;;;;5003704;28;20220;-73
2021/04/23 06:26:27;;;;;;;12.33;11.23;;;13.80;82.40;;;;;;4988310;28;20634;-73
2021/04/23 06:28:54;;;;;;;12.37;11.20;;;14.00;81.60;;;;;;5004858;28;20220;-73
2021/04/23 06:31:21;;;;;;;12.90;11.80;;;14.20;80.60;;;;;;5007287;28;20254;-72
2021/04/23 06:33:51;;;;;;;13.23;12.13;;;14.30;80.50;;;;;;5003921;28;20227;-72
2021/04/23 06:36:19;;;;;;;12.40;11.30;;;14.30;80.10;;;;;;4993461;28;20220;-73
2021/04/23 06:38:46;;;;;;;12.17;10.97;;;14.50;79.80;;;;;;5003282;28;20303;-73
2021/04/23 06:41:14;;;;;;;12.20;11.00;;;14.70;79.00;;;;;;5006977;28;20255;-73
2021/04/23 06:43:43;;;;;;;13.40;12.30;;;14.80;78.30;;;;;;5004441;28;20306;-73
2021/04/23 06:46:11;;;;;;;12.27;11.17;;;14.80;78.00;;;;;;5001967;28;20220;-74
2021/04/23 06:48:41;;;;;;;13.40;12.10;;;14.70;77.40;;;;;;5004572;28;20234;-73
2021/04/23 06:51:08;;;;;;;13.07;11.70;;;14.80;77.50;;;;;;5005584;28;20255;-73
2021/04/23 06:53:35;;;;;;;13.03;11.73;;;14.80;77.50;;;;;;4994359;28;20227;-73
2021/04/23 06:56:02;;;;;;;13.33;11.77;;;14.90;77.50;;;;;;5005551;28;20219;-73
2021/04/23 06:58:30;;;;;;;13.83;12.13;;;15.20;76.90;;;;;;5001929;28;20245;-73
2021/04/23 07:00:57;;;;;;;13.00;11.70;;;15.30;76.70;;;;;;4987742;28;20235;-72
2021/04/23 07:03:24;;;;;;;14.37;12.97;;;15.30;77.00;;;;;;4997791;28;20675;-72
2021/04/23 07:05:52;;;;;;;15.10;12.57;;;15.40;77.10;;;;;;4999611;28;20570;-74
2021/04/23 07:08:19;;;;;;;13.23;11.93;;;15.50;76.80;;;;;;4991553;28;20658;-73
2021/04/23 07:10:48;;;;;;;13.30;11.90;;;15.60;75.70;;;;;;4993690;28;20789;-73
2021/04/23 07:13:16;;;;;;;13.27;12.03;;;15.70;75.90;;;;;;4988601;28;20212;-72
2021/04/23 07:15:43;;;;;;;13.50;11.57;;;16.00;75.50;;;;;;4993647;28;20240;-73
2021/04/23 07:18:10;;;;;;;12.80;11.53;;;16.20;74.40;;;;;;4988487;28;20318;-73
2021/04/23 07:20:41;;;;;;;13.77;12.40;;;16.20;73.90;;;;;;5003765;28;20221;-72
2021/04/23 07:23:09;;;;;;;15.57;13.13;;;16.30;74.30;;;;;;5006760;28;20219;-72
2021/04/23 07:25:36;;;;;;;14.90;13.07;;;16.50;74.30;;;;;;4994434;28;20307;-73
2021/04/23 07:28:04;;;;;;;13.67;12.27;;;16.60;74.20;;;;;;5004432;28;20219;-72
2021/04/23 07:30:34;;;;;;;14.40;12.90;;;16.80;74.20;;;;;;4996312;28;20220;-73
2021/04/23 07:33:05;;;;;;;14.23;12.87;;;17.00;74.20;;;;;;5002785;28;20259;-73
2021/04/23 07:35:33;;;;;;;14.07;12.53;;;17.20;72.50;;;;;;5003493;28;20216;-72
2021/04/23 07:38:01;;;;;;;14.57;13.17;;;17.10;72.50;;;;;;5004448;28;20637;-72
2021/04/23 07:40:29;;;;;;;15.20;13.60;;;17.10;73.10;;;;;;4982187;28;20216;-73
2021/04/23 07:42:56;;;;;;;15.27;12.87;;;17.30;73.50;;;;;;5003578;28;20251;-74
2021/04/23 07:45:23;;;;;;;14.87;11.83;;;17.50;73.00;;;;;;5002571;28;20215;-74
2021/04/23 07:47:50;;;;;;;15.27;11.37;;;17.50;73.20;;;;;;5010043;28;20220;-74
2021/04/23 07:50:22;;;;;;;12.67;10.43;;;17.80;73.70;;;;;;5001690;28;20211;-73
2021/04/23 07:52:49;;;;;;;12.70;10.80;;;18.10;73.10;;;;;;4988214;28;20223;-72
2021/04/23 07:55:16;;;;;;;12.77;9.37;;;18.40;72.10;;;;;;4981802;28;20231;-72
2021/04/23 07:57:47;;;;;;;13.57;10.73;;;18.60;71.80;;;;;;5001318;28;20247;-72
2021/04/23 08:00:16;;;;;;;11.73;10.43;;;18.70;71.50;;;;;;5005642;28;20611;-73
2021/04/23 08:02:43;;;;;;;13.23;10.27;;;19.00;71.50;;;;;;4991079;28;20231;-73
2021/04/23 08:05:13;;;;;;;16.13;11.40;;;19.30;71.00;;;;;;4995166;28;20220;-73
2021/04/23 08:08:01;;;;;;;16.80;12.33;;;19.40;69.90;;;;;;4989866;28;20281;-73
2021/04/23 08:10:29;;;;;;;16.83;13.30;;;19.40;68.80;;;;;;5002035;28;20248;-73
2021/04/23 08:12:56;;;;;;;19.77;13.37;;;19.40;69.80;;;;;;5006611;28;20226;-74
2021/04/23 08:15:24;;;;;;;15.23;13.23;;;19.50;70.10;;;;;;5000192;28;20219;-74
2021/04/23 08:17:52;;;;;;;19.23;13.87;;;19.60;69.40;;;;;;5007638;28;20243;-75
2021/04/23 08:20:19;;;;;;;14.87;12.97;;;19.80;68.90;;;;;;5005305;28;20211;-73
2021/04/23 08:22:46;;;;;;;16.53;12.43;;;19.80;68.80;;;;;;5007761;28;20216;-73
2021/04/23 08:25:16;;;;;;;21.47;13.97;;;19.70;69.00;;;;;;5005914;28;20213;-73
2021/04/23 08:27:43;;;;;;;23.37;16.60;;;19.60;68.30;;;;;;4989397;28;20213;-73
2021/04/23 08:30:11;;;;;;;24.73;18.50;;;19.40;68.60;;;;;;5007023;28;20223;-73
2021/04/23 08:32:38;;;;;;;25.90;18.70;;;19.00;70.00;;;;;;5008412;28;20671;-73
2021/04/23 08:35:07;;;;;;;23.97;15.93;;;18.70;70.50;;;;;;5008486;28;20556;-73
2021/04/23 08:37:35;;;;;;;19.70;17.63;;;18.50;72.10;;;;;;5007219;28;20216;-73
2021/04/23 08:40:04;;;;;;;20.10;17.47;;;18.70;73.10;;;;;;5006013;28;20212;-73
2021/04/23 08:42:32;;;;;;;26.37;18.90;;;19.00;71.60;;;;;;4986816;28;20251;-73
2021/04/23 08:44:59;;;;;;;21.27;18.97;;;19.10;70.70;;;;;;4993617;28;20314;-73
2021/04/23 08:47:26;;;;;;;20.60;18.47;;;19.10;71.00;;;;;;5005841;28;20211;-75
2021/04/23 08:49:58;;;;;;;22.70;20.30;;;19.10;70.60;;;;;;5005690;28;20219;-75
2021/04/23 08:52:26;;;;;;;23.00;19.17;;;19.20;71.30;;;;;;5007551;28;20208;-74
2021/04/23 08:54:55;;;;;;;21.40;18.07;;;19.40;71.40;;;;;;4988587;28;20222;-75
2021/04/23 08:57:25;;;;;;;24.40;18.50;;;19.60;70.50;;;;;;4996270;28;20270;-75
2021/04/23 08:59:52;;;;;;;20.37;17.13;;;19.70;69.70;;;;;;4996042;28;20248;-75
2021/04/23 09:02:19;;;;;;;26.90;16.83;;;19.50;69.40;;;;;;5000917;28;20511;-75
2021/04/23 09:04:46;;;;;;;19.53;14.47;;;19.30;69.50;;;;;;5004722;28;20219;-74
2021/04/23 09:07:13;;;;;;;20.47;12.13;;;19.10;70.10;;;;;;5006317;28;20859;-73
2021/04/23 09:09:43;;;;;;;21.50;15.70;;;19.30;69.60;;;;;;4990868;28;20580;-73
2021/04/23 09:12:21;;;;;;;20.37;15.07;;;19.60;68.10;;;;;;4984799;28;20224;-73
2021/04/23 09:14:57;;;;;;;14.27;10.60;;;19.60;67.20;;;;;;4992713;28;20315;-73
2021/04/23 09:17:25;;;;;;;16.40;10.87;;;19.60;67.20;;;;;;5006005;28;20219;-72
2021/04/23 09:19:53;;;;;;;14.67;11.60;;;19.90;67.20;;;;;;5007958;28;20243;-73
2021/04/23 09:22:30;;;;;;;16.67;10.40;;;20.40;66.50;;;;;;5007376;28;20641;-72
2021/04/23 09:25:08;;;;;;;12.77;11.13;;;20.60;64.60;;;;;;4990444;28;20777;-73
2021/04/23 09:27:38;;;;;;;12.93;11.40;;;20.70;64.70;;;;;;4994175;28;20215;-72
2021/04/23 09:30:10;;;;;;;13.57;10.63;;;20.80;64.20;;;;;;5007259;28;20644;-73
2021/04/23 09:32:39;;;;;;;11.57;8.07;;;20.80;61.90;;;;;;4988868;28;20231;-72
2021/04/23 09:35:20;;;;;;;14.87;7.60;;;20.80;62.80;;;;;;5002162;28;20225;-73
2021/04/23 09:37:59;;;;;;;9.80;7.40;;;20.90;62.50;;;;;;4998292;28;20235;-74
2021/04/23 09:40:32;;;;;;;11.80;7.90;;;21.00;58.80;;;;;;4988231;28;20212;-74
2021/04/23 09:43:04;;;;;;;10.87;7.47;;;20.90;60.40;;;;;;5007280;28;20600;-73
2021/04/23 09:45:46;;;;;;;11.60;5.73;;;21.00;61.70;;;;;;4988142;28;20303;-74
2021/04/23 09:48:25;;;;;;;7.83;5.50;;;21.30;61.20;;;;;;4987288;28;20224;-74
2021/04/23 09:50:53;;;;;;;8.53;6.57;;;21.70;58.20;;;;;;5003575;28;20234;-74
2021/04/23 09:53:32;;;;;;;9.03;7.10;;;21.90;57.70;;;;;;5004394;28;20621;-73
2021/04/23 09:55:59;;;;;;;9.40;6.70;;;21.80;56.20;;;;;;4995053;28;20216;-74
2021/04/23 09:58:25;;;;;;;11.30;7.07;;;21.50;57.70;;;;;;5003416;28;20335;-74
2021/04/23 10:00:59;;;;;;;7.73;5.60;;;21.30;58.70;;;;;;5007304;28;20239;-75
2021/04/23 10:03:33;;;;;;;11.90;7.07;;;21.40;57.60;;;;;;5007198;28;20223;-74
2021/04/23 10:06:22;;;;;;;10.03;5.10;;;21.20;57.80;;;;;;5005520;28;20303;-74
2021/04/23 10:08:49;;;;;;;17.97;7.10;;;21.20;56.70;;;;;;4998141;28;20255;-74
2021/04/23 10:11:15;;;;;;;9.87;6.63;;;21.10;57.80;;;;;;5006119;28;20221;-74
2021/04/23 10:13:42;;;;;;;6.27;5.43;;;21.20;57.90;;;;;;5002994;28;20224;-74
2021/04/23 10:16:10;;;;;;;8.23;6.37;;;21.40;56.40;;;;;;4988071;28;20216;-74
2021/04/23 10:18:36;;;;;;;9.47;6.40;;;21.50;56.70;;;;;;5006188;28;20239;-73
2021/04/23 10:21:03;;;;;;;9.03;5.63;;;21.50;56.30;;;;;;4995033;28;20228;-73
2021/04/23 10:23:30;;;;;;;6.97;5.23;;;21.10;57.10;;;;;;5005758;28;20247;-74
2021/04/23 10:25:59;;;;;;;7.67;4.50;;;21.20;56.90;;;;;;5002263;28;20224;-74
2021/04/23 10:28:26;;;;;;;5.33;4.00;;;21.30;57.30;;;;;;4997706;28;20585;-74
2021/04/23 10:30:55;;;;;;;6.93;4.63;;;21.60;55.70;;;;;;4986924;28;20222;-73
2021/04/23 10:33:24;;;;;;;6.07;4.57;;;21.90;54.50;;;;;;5004707;28;20220;-72
2021/04/23 10:35:55;;;;;;;5.60;3.80;;;22.20;54.00;;;;;;4997286;28;20235;-71
2021/04/23 10:38:26;;;;;;;5.17;4.10;;;22.40;53.30;;;;;;5004479;28;20331;-72
2021/04/23 10:40:58;;;;;;;5.13;3.77;;;22.60;52.40;;;;;;5003098;28;20294;-72
2021/04/23 10:43:34;;;;;;;4.40;4.00;;;22.60;53.40;;;;;;5003085;28;20211;-73
2021/04/23 10:46:12;;;;;;;5.60;4.20;;;22.60;52.50;;;;;;5002867;28;20227;-72
2021/04/23 10:48:44;;;;;;;6.43;4.33;;;22.70;51.90;;;;;;5004414;28;20329;-74
2021/04/23 10:51:28;;;;;;;4.77;3.70;;;22.70;54.00;;;;;;4996638;28;20262;-74
2021/04/23 10:54:13;;;;;;;7.10;4.13;;;22.80;52.60;;;;;;4997007;28;20235;-73
2021/04/23 10:56:48;;;;;;;5.53;3.73;;;22.80;52.00;;;;;;4994278;28;20216;-76
2021/04/23 10:59:24;;;;;;;10.00;3.70;;;22.60;51.40;;;;;;5002307;28;20278;-76
2021/04/23 11:01:52;;;;;;;3.97;2.97;;;22.50;51.50;;;;;;4998815;28;20528;-75
2021/04/23 11:04:20;;;;;;;5.17;3.57;;;22.40;52.30;;;;;;5005570;28;20216;-75
2021/04/23 11:06:59;;;;;;;6.30;3.43;;;22.20;52.50;;;;;;5003146;28;20215;-75
2021/04/23 11:09:27;;;;;;;6.60;3.40;;;22.00;52.70;;;;;;5001207;28;20395;-76
2021/04/23 11:12:13;;;;;;;6.40;3.67;;;21.80;53.60;;;;;;4993967;28;20229;-74
2021/04/23 11:14:42;;;;;;;5.33;3.30;;;21.60;53.20;;;;;;4988881;28;20226;-73
2021/04/23 11:17:17;;;;;;;3.17;2.70;;;21.70;53.20;;;;;;4999349;28;20580;-75
2021/04/23 11:19:49;;;;;;;3.63;3.23;;;22.00;53.00;;;;;;5002753;28;20242;-74
2021/04/23 11:22:19;;;;;;;5.57;3.60;;;22.30;52.80;;;;;;4995699;28;20657;-74
2021/04/23 11:25:13;;;;;;;7.37;3.50;;;22.50;52.20;;;;;;4994106;28;20247;-74
2021/04/23 11:28:05;;;;;;;3.83;3.10;;;22.50;51.90;;;;;;4998173;28;20564;-74
2021/04/23 11:30:55;;;;;;;4.93;3.67;;;22.70;51.90;;;;;;4998705;28;20227;-74
2021/04/23 11:34:00;;;;;;;5.10;3.23;;;23.00;51.10;;;;;;5005739;28;20227;-74
2021/04/23 11:36:36;;;;;;;4.40;2.90;;;22.70;50.70;;;;;;4998295;28;20703;-74
2021/04/23 11:39:03;;;;;;;4.53;3.40;;;22.30;51.80;;;;;;4992897;28;20267;-74
2021/04/23 11:41:30;;;;;;;5.43;3.07;;;22.00;50.90;;;;;;5002237;28;20216;-74
2021/04/23 11:43:57;;;;;;;6.70;3.63;;;21.90;51.20;;;;;;4990207;28;20261;-75
2021/04/23 11:47:00;;;;;;;3.53;3.13;;;21.80;51.60;;;;;;4987538;28;20241;-73
2021/04/23 11:49:28;;;;;;;4.20;3.00;;;21.90;51.70;;;;;;4997705;28;20290;-74
2021/04/23 11:52:00;;;;;;;5.20;3.57;;;22.20;50.50;;;;;;4999787;28;20558;-74
2021/04/23 11:54:41;;;;;;;6.70;3.40;;;22.50;50.40;;;;;;5000478;28;20219;-74
2021/04/23 11:57:10;;;;;;;4.00;2.90;;;22.80;49.00;;;;;;5005938;28;20216;-74
2021/04/23 11:59:59;;;;;;;5.00;3.07;;;23.00;48.40;;;;;;4998833;28;20240;-74
2021/04/23 12:02:56;;;;;;;5.17;3.07;;;23.10;48.00;;;;;;4988739;28;20302;-75
2021/04/23 12:05:24;;;;;;;4.03;2.87;;;23.30;47.80;;;;;;4999931;28;20211;-74
2021/04/23 12:07:52;;;;;;;4.43;2.93;;;23.50;48.00;;;;;;5001381;28;20813;-74
2021/04/23 12:10:21;;;;;;;4.07;2.90;;;23.80;47.80;;;;;;5004340;28;20207;-75
2021/04/23 12:12:49;;;;;;;4.87;3.00;;;24.10;46.80;;;;;;5000814;28;20633;-74
2021/04/23 12:15:22;;;;;;;4.67;3.30;;;24.10;46.20;;;;;;5000179;28;20215;-75
2021/04/23 12:17:49;;;;;;;4.40;3.67;;;24.10;47.50;;;;;;4997076;28;20212;-74
2021/04/23 12:20:23;;;;;;;3.87;3.47;;;23.90;47.10;;;;;;5002958;28;20676;-74
2021/04/23 12:22:50;;;;;;;5.30;3.40;;;23.80;46.80;;;;;;5002761;28;20309;-74
2021/04/23 12:25:27;;;;;;;5.30;3.17;;;23.40;47.60;;;;;;5002589;28;20552;-74
2021/04/23 12:28:14;;;;;;;5.23;3.00;;;22.90;48.50;;;;;;5000770;28;20219;-74
2021/04/23 12:30:43;;;;;;;8.13;3.40;;;22.60;49.70;;;;;;5003342;28;20306;-74
2021/04/23 12:33:10;;;;;;;5.00;3.13;;;22.30;49.60;;;;;;4993445;28;20215;-73
2021/04/23 12:35:40;;;;;;;4.20;3.40;;;22.40;50.00;;;;;;5000697;28;20220;-75
2021/04/23 12:38:08;;;;;;;6.43;3.67;;;22.50;50.90;;;;;;4994272;28;20244;-74
2021/04/23 12:40:46;;;;;;;5.07;3.33;;;22.50;51.10;;;;;;5000580;28;20223;-74
2021/04/23 12:43:13;;;;;;;6.77;3.47;;;22.10;51.60;;;;;;4995490;28;20223;-74
2021/04/23 12:45:45;;;;;;;4.37;3.47;;;21.70;52.10;;;;;;5002703;28;20216;-74